Time;durP1;ratioP1;P1;durP2;ratioP2;P2;SDS_P1;SDS_P2;PMS_P1;PMS_P2;Temp;Humidity;BMP_temperature;BMP_pressure;BME280_temperature;BME280_humidity;BME280_pressure;Samples;Min_cycle;Max_cycle;Signal;HPM_P1;HPM_P2
2021/06/27 00:00:48;;;;;;;8.63;6.38;;;21.90;99.90;;;;;;4214753;28;20044;-76
2021/06/27 00:02:51;;;;;;;10.13;6.93;;;21.80;99.90;;;;;;4196149;28;20040;-76
2021/06/27 00:04:56;;;;;;;10.07;6.45;;;21.80;99.90;;;;;;4213178;28;20450;-76
2021/06/27 00:06:59;;;;;;;9.38;6.78;;;21.80;99.90;;;;;;4196044;28;20053;-76
2021/06/27 00:09:03;;;;;;;11.07;6.70;;;21.80;99.90;;;;;;4230733;28;20048;-77
2021/06/27 00:11:08;;;;;;;9.18;6.70;;;21.90;99.90;;;;;;4212541;28;20140;-76
2021/06/27 00:13:11;;;;;;;;;;;22.00;99.90;;;;;;4196717;28;20047;-76
2021/06/27 00:15:18;;;;;;;8.65;7.28;;;22.00;99.90;;;;;;4212603;28;19920;-76
2021/06/27 00:17:21;;;;;;;9.60;7.00;;;22.00;99.90;;;;;;4216156;28;20048;-76
2021/06/27 00:19:24;;;;;;;11.38;7.35;;;21.90;99.90;;;;;;4200848;28;20056;-75
2021/06/27 00:21:29;;;;;;;8.00;6.90;;;22.00;99.90;;;;;;4219971;28;20071;-76
2021/06/27 00:23:35;;;;;;;12.18;7.57;;;22.00;99.90;;;;;;4200521;28;20051;-75
2021/06/27 00:25:39;;;;;;;11.98;7.38;;;21.90;99.90;;;;;;4214992;28;20055;-76
2021/06/27 00:27:45;;;;;;;10.20;6.78;;;21.80;99.90;;;;;;4217697;28;20051;-76
2021/06/27 00:29:48;;;;;;;8.57;7.13;;;21.70;99.90;;;;;;4223195;28;20116;-76
2021/06/27 00:31:52;;;;;;;14.65;7.72;;;21.50;99.90;;;;;;4224906;28;20060;-76
2021/06/27 00:33:55;;;;;;;12.23;8.05;;;21.50;99.90;;;;;;4205875;28;20123;-75
2021/06/27 00:35:58;;;;;;;12.80;7.97;;;21.60;99.90;;;;;;4221085;28;20046;-76
2021/06/27 00:38:03;;;;;;;10.70;7.13;;;21.60;99.90;;;;;;4204617;28;20045;-76
2021/06/27 00:40:11;;;;;;;11.85;8.00;;;21.50;99.90;;;;;;4240735;28;20027;-75
2021/06/27 00:42:15;;;;;;;9.88;7.28;;;21.50;99.90;;;;;;4242344;28;20051;-75
2021/06/27 00:44:21;;;;;;;17.83;8.07;;;21.40;99.90;;;;;;4202591;28;20056;-75
2021/06/27 00:46:24;;;;;;;10.73;7.82;;;21.40;99.90;;;;;;4234457;28;20043;-76
2021/06/27 00:48:27;;;;;;;11.27;7.60;;;21.50;99.90;;;;;;4217030;28;20485;-76
2021/06/27 00:50:32;;;;;;;12.57;8.48;;;21.60;99.90;;;;;;4218080;28;20044;-76
2021/06/27 00:52:36;;;;;;;12.73;8.45;;;21.60;99.90;;;;;;4198315;28;20113;-78
2021/06/27 00:54:41;;;;;;;15.05;7.78;;;21.80;99.90;;;;;;4231315;28;20040;-76
2021/06/27 00:56:45;;;;;;;11.90;8.23;;;21.60;99.90;;;;;;4212337;28;20423;-74
2021/06/27 00:58:49;;;;;;;13.90;7.63;;;21.60;99.90;;;;;;4212423;28;20048;-77
2021/06/27 01:00:52;;;;;;;18.02;8.32;;;21.50;99.90;;;;;;4230262;28;20040;-75
2021/06/27 01:02:56;;;;;;;10.88;8.32;;;21.40;99.90;;;;;;4230023;28;20055;-76
2021/06/27 01:05:01;;;;;;;12.50;8.40;;;21.30;99.90;;;;;;4229131;28;20515;-75
2021/06/27 01:07:04;;;;;;;15.98;9.05;;;21.30;99.90;;;;;;4229581;28;20442;-74
2021/06/27 01:09:07;;;;;;;14.82;9.15;;;21.30;99.90;;;;;;4229853;28;20074;-77
2021/06/27 01:11:12;;;;;;;25.27;9.38;;;21.30;99.90;;;;;;4234235;28;20051;-76
2021/06/27 01:13:16;;;;;;;16.65;9.57;;;21.20;99.90;;;;;;4221728;28;20048;-74
2021/06/27 01:15:20;;;;;;;15.43;9.55;;;21.10;99.90;;;;;;4239405;28;20048;-75
2021/06/27 01:17:23;;;;;;;12.60;9.13;;;20.90;99.90;;;;;;4237544;28;20111;-76
2021/06/27 01:19:30;;;;;;;11.85;9.30;;;20.70;99.90;;;;;;4212457;28;20058;-75
2021/06/27 01:21:36;;;;;;;10.35;8.95;;;20.70;99.90;;;;;;4229033;28;20110;-76
2021/06/27 01:23:39;;;;;;;12.80;9.82;;;20.50;99.90;;;;;;4229376;28;20055;-76
2021/06/27 01:25:45;;;;;;;14.63;8.65;;;20.60;99.90;;;;;;4229390;28;20055;-74
2021/06/27 01:27:48;;;;;;;18.55;9.13;;;20.50;99.90;;;;;;4228680;28;20622;-76
2021/06/27 01:29:51;;;;;;;21.63;9.30;;;20.50;99.90;;;;;;4230686;28;20573;-76
2021/06/27 01:31:54;;;;;;;9.55;8.55;;;20.40;99.90;;;;;;4217159;28;20052;-75
2021/06/27 01:33:58;;;;;;;11.38;8.95;;;20.50;99.90;;;;;;4234271;28;20055;-75
2021/06/27 01:36:01;;;;;;;16.05;8.60;;;20.50;99.90;;;;;;4234348;28;20051;-75
2021/06/27 01:38:06;;;;;;;15.63;9.05;;;20.60;99.90;;;;;;4229989;28;20066;-76
2021/06/27 01:40:11;;;;;;;13.23;8.68;;;20.50;99.90;;;;;;4211289;28;20040;-77
2021/06/27 01:42:14;;;;;;;11.38;9.27;;;20.60;99.90;;;;;;4211112;28;20052;-76
2021/06/27 01:44:19;;;;;;;12.23;8.68;;;20.50;99.90;;;;;;4229045;28;20047;-75
2021/06/27 01:46:22;;;;;;;13.70;8.60;;;20.50;99.90;;;;;;4210938;28;20420;-76
2021/06/27 01:48:25;;;;;;;13.52;9.00;;;20.60;99.90;;;;;;4228813;28;20594;-75
2021/06/27 01:50:29;;;;;;;15.10;9.32;;;20.70;99.90;;;;;;4229111;28;20047;-76
2021/06/27 01:52:34;;;;;;;14.15;9.40;;;20.80;99.90;;;;;;4228638;28;20075;-75
2021/06/27 01:54:39;;;;;;;12.57;9.32;;;20.80;99.90;;;;;;4228931;28;20492;-74
2021/06/27 01:56:42;;;;;;;15.55;9.70;;;20.90;99.90;;;;;;4210805;28;20656;-76
2021/06/27 01:58:48;;;;;;;20.27;9.35;;;21.10;99.90;;;;;;4229376;28;20046;-74
2021/06/27 02:00:51;;;;;;;12.60;9.02;;;21.10;99.90;;;;;;4229409;28;20070;-76
2021/06/27 02:02:55;;;;;;;15.13;9.95;;;21.30;99.90;;;;;;4229856;28;20062;-76
2021/06/27 02:04:58;;;;;;;13.45;8.85;;;21.30;99.90;;;;;;4231694;28;20062;-74
2021/06/27 02:07:01;;;;;;;12.82;10.00;;;21.40;99.90;;;;;;4214412;28;20048;-77
2021/06/27 02:09:09;;;;;;;14.27;9.77;;;21.30;99.90;;;;;;4231831;28;20071;-76
2021/06/27 02:11:15;;;;;;;16.75;10.45;;;21.40;99.90;;;;;;4231771;28;20126;-75
2021/06/27 02:13:19;;;;;;;17.38;9.95;;;21.40;99.90;;;;;;4231986;28;20054;-74
2021/06/27 02:15:23;;;;;;;12.90;10.07;;;21.30;99.90;;;;;;4231978;28;20472;-76
2021/06/27 02:17:26;;;;;;;20.10;10.20;;;21.20;99.90;;;;;;4232949;28;20074;-76
2021/06/27 02:19:29;;;;;;;16.52;9.80;;;21.10;99.90;;;;;;4213994;28;20143;-77
2021/06/27 02:21:36;;;;;;;10.10;9.02;;;21.10;99.90;;;;;;4231946;28;20052;-75
2021/06/27 02:23:40;;;;;;;14.45;9.93;;;21.00;99.90;;;;;;4231752;28;20052;-76
2021/06/27 02:25:44;;;;;;;10.55;9.10;;;20.90;99.90;;;;;;4214308;28;20059;-77
2021/06/27 02:27:49;;;;;;;12.05;9.20;;;20.90;99.90;;;;;;4232324;28;20047;-77
2021/06/27 02:29:52;;;;;;;15.13;9.75;;;20.80;99.90;;;;;;4232317;28;20058;-75
2021/06/27 02:31:58;;;;;;;13.05;9.82;;;20.70;99.90;;;;;;4213889;28;20505;-75
2021/06/27 02:34:02;;;;;;;15.15;9.98;;;20.60;99.90;;;;;;4232437;28;20047;-78
2021/06/27 02:36:06;;;;;;;13.05;9.80;;;20.70;99.90;;;;;;4238101;28;20040;-77
2021/06/27 02:38:09;;;;;;;11.60;9.85;;;20.60;99.90;;;;;;4236497;28;20515;-78
2021/06/27 02:40:13;;;;;;;14.25;10.73;;;20.60;99.90;;;;;;4236229;28;20043;-76
2021/06/27 02:42:16;;;;;;;15.63;10.48;;;20.70;99.90;;;;;;4239713;28;20051;-76
2021/06/27 02:44:21;;;;;;;18.50;10.85;;;20.60;99.90;;;;;;4222445;28;20052;-77
2021/06/27 02:46:24;;;;;;;14.90;10.40;;;20.50;99.90;;;;;;4242718;28;20127;-75
2021/06/27 02:48:29;;;;;;;17.08;10.23;;;20.50;99.90;;;;;;4239442;28;20048;-76
2021/06/27 02:50:32;;;;;;;15.98;9.85;;;20.40;99.90;;;;;;4217134;28;20068;-76
2021/06/27 02:52:36;;;;;;;11.95;9.63;;;20.40;99.90;;;;;;4213206;28;20492;-76
2021/06/27 02:54:39;;;;;;;12.95;10.35;;;20.40;99.90;;;;;;4231459;28;20052;-76
2021/06/27 02:56:43;;;;;;;16.90;10.68;;;20.30;99.90;;;;;;4231074;28;20054;-77
2021/06/27 02:58:47;;;;;;;14.38;10.55;;;20.30;99.90;;;;;;4232120;28;20039;-73
2021/06/27 03:00:52;;;;;;;14.38;10.43;;;20.30;99.90;;;;;;4213609;28;20063;-76
2021/06/27 03:02:55;;;;;;;13.65;11.13;;;20.30;99.90;;;;;;4196969;28;20056;-73
2021/06/27 03:04:58;;;;;;;19.38;11.40;;;20.30;99.90;;;;;;4231435;28;20054;-75
2021/06/27 03:07:01;;;;;;;17.23;11.85;;;20.20;99.90;;;;;;4213926;28;20054;-74
2021/06/27 03:09:05;;;;;;;16.20;10.40;;;20.20;99.90;;;;;;4232302;28;20047;-76
2021/06/27 03:11:09;;;;;;;12.95;10.10;;;20.20;99.90;;;;;;4232126;28;20044;-78
2021/06/27 03:13:12;;;;;;;18.95;9.35;;;20.20;99.90;;;;;;4231192;28;20058;-76
2021/06/27 03:15:18;;;;;;;14.82;9.52;;;20.20;99.90;;;;;;4232391;28;20052;-77
2021/06/27 03:17:23;;;;;;;13.30;10.05;;;20.30;99.90;;;;;;4214673;28;20060;-76
2021/06/27 03:19:26;;;;;;;11.98;8.82;;;20.40;99.90;;;;;;4214672;28;20059;-76
2021/06/27 03:21:29;;;;;;;12.90;9.63;;;20.40;99.90;;;;;;4214415;28;20043;-75
2021/06/27 03:23:32;;;;;;;16.48;9.52;;;20.40;99.90;;;;;;4232165;28;20039;-74
2021/06/27 03:25:35;;;;;;;13.07;9.18;;;20.50;99.90;;;;;;4214546;28;20592;-77
2021/06/27 03:27:38;;;;;;;14.63;9.90;;;20.60;99.90;;;;;;4216246;28;20048;-75
2021/06/27 03:29:42;;;;;;;15.13;8.82;;;20.80;99.90;;;;;;4233346;28;20062;-77
2021/06/27 03:31:45;;;;;;;13.40;9.57;;;20.90;99.90;;;;;;4213301;28;20063;-79
2021/06/27 03:33:50;;;;;;;14.15;9.52;;;20.80;99.90;;;;;;4231121;28;20055;-76
2021/06/27 03:35:54;;;;;;;20.30;9.80;;;20.70;99.90;;;;;;4230973;28;20044;-73
2021/06/27 03:40:00;;;;;;;13.93;9.43;;;20.90;99.90;;;;;;4230808;28;20036;-80
2021/06/27 03:42:04;;;;;;;12.85;9.80;;;21.00;99.90;;;;;;4230672;28;20074;-77
2021/06/27 03:44:08;;;;;;;11.87;9.47;;;21.10;99.90;;;;;;4213052;28;20086;-75
2021/06/27 03:46:12;;;;;;;11.70;9.20;;;21.20;99.90;;;;;;4230626;28;20987;-74
2021/06/27 03:48:15;;;;;;;16.80;10.13;;;21.30;99.90;;;;;;4213019;28;20039;-76
2021/06/27 03:50:20;;;;;;;12.70;10.30;;;21.10;99.90;;;;;;4212779;28;20082;-75
2021/06/27 03:52:23;;;;;;;14.25;9.93;;;21.00;99.90;;;;;;4213077;28;20040;-76
2021/06/27 03:54:26;;;;;;;14.63;11.15;;;20.80;99.90;;;;;;4233671;28;20035;-77
2021/06/27 03:56:29;;;;;;;14.70;9.98;;;20.80;99.90;;;;;;4200101;28;20674;-76
2021/06/27 03:58:32;;;;;;;16.90;11.00;;;20.90;99.90;;;;;;4233367;28;20056;-76
2021/06/27 04:00:35;;;;;;;11.00;8.77;;;21.00;99.90;;;;;;4237055;28;20043;-75
2021/06/27 04:02:39;;;;;;;14.15;10.32;;;21.10;99.90;;;;;;4236693;28;20046;-76
2021/06/27 04:04:43;;;;;;;14.23;10.02;;;21.20;99.90;;;;;;4218413;28;20043;-77
2021/06/27 04:06:48;;;;;;;13.48;10.30;;;21.30;99.90;;;;;;4230765;28;20040;-75
2021/06/27 04:08:51;;;;;;;13.45;10.07;;;21.20;99.90;;;;;;4212192;28;20056;-75
2021/06/27 04:10:57;;;;;;;14.90;10.20;;;21.20;99.90;;;;;;4212711;28;20153;-76
2021/06/27 04:13:00;;;;;;;12.68;9.55;;;21.20;99.90;;;;;;4212607;28;20047;-77
2021/06/27 04:15:05;;;;;;;12.65;10.20;;;21.10;99.90;;;;;;4212461;28;20047;-76
2021/06/27 04:17:10;;;;;;;13.30;9.23;;;21.20;99.90;;;;;;4230568;28;20048;-76
2021/06/27 04:19:14;;;;;;;15.15;9.38;;;21.10;99.90;;;;;;4212363;28;20043;-77
2021/06/27 04:21:17;;;;;;;13.77;9.15;;;21.20;99.90;;;;;;4229824;28;20073;-76
2021/06/27 04:23:21;;;;;;;12.15;9.82;;;21.20;99.90;;;;;;4212041;28;20114;-74
2021/06/27 04:25:24;;;;;;;13.15;8.45;;;21.30;99.90;;;;;;4229861;28;20056;-75
2021/06/27 04:27:29;;;;;;;12.80;10.00;;;21.40;99.90;;;;;;4230093;28;20043;-75
2021/06/27 04:29:32;;;;;;;13.18;9.23;;;21.30;99.90;;;;;;4229847;28;20044;-76
2021/06/27 04:31:35;;;;;;;14.57;9.15;;;21.30;99.90;;;;;;4195112;28;20041;-78
2021/06/27 04:33:38;;;;;;;11.77;8.82;;;21.40;99.90;;;;;;4211651;28;20642;-76
2021/06/27 04:35:41;;;;;;;13.98;9.82;;;21.40;99.90;;;;;;4212085;28;20048;-78
2021/06/27 04:37:44;;;;;;;15.05;9.60;;;21.40;99.90;;;;;;4212176;28;20051;-76
2021/06/27 04:39:49;;;;;;;12.90;9.25;;;21.30;99.90;;;;;;4212489;28;20083;-76
2021/06/27 04:41:52;;;;;;;13.85;8.80;;;21.40;99.90;;;;;;4229725;28;20430;-76
2021/06/27 04:43:56;;;;;;;11.70;9.75;;;21.50;99.90;;;;;;4211733;28;20044;-77
2021/06/27 04:45:59;;;;;;;11.80;10.02;;;21.50;99.90;;;;;;4229890;28;20400;-75
2021/06/27 04:48:04;;;;;;;11.88;8.60;;;21.50;99.90;;;;;;4229788;28;20044;-76
2021/06/27 04:50:08;;;;;;;12.80;8.75;;;21.60;99.90;;;;;;4211598;28;20147;-74
2021/06/27 04:52:12;;;;;;;14.73;9.67;;;21.60;99.90;;;;;;4229861;28;20047;-76
2021/06/27 04:54:15;;;;;;;12.88;9.50;;;21.60;99.90;;;;;;4229584;28;20459;-78
2021/06/27 04:56:19;;;;;;;14.10;9.95;;;21.30;99.90;;;;;;4211464;28;20047;-77
2021/06/27 04:58:22;;;;;;;11.25;9.00;;;21.20;99.90;;;;;;4229381;28;20085;-76
2021/06/27 05:00:26;;;;;;;16.40;9.70;;;21.30;99.90;;;;;;4230183;28;20339;-76
2021/06/27 05:02:29;;;;;;;16.25;10.40;;;21.30;99.90;;;;;;4211709;28;20056;-77
2021/06/27 05:04:32;;;;;;;14.10;10.55;;;21.40;99.90;;;;;;4195079;28;20139;-75
2021/06/27 05:06:35;;;;;;;14.45;10.32;;;21.40;99.90;;;;;;4229746;28;20126;-75
2021/06/27 05:08:39;;;;;;;18.08;9.77;;;21.40;99.90;;;;;;4212051;28;20044;-77
2021/06/27 05:10:42;;;;;;;14.38;9.40;;;21.30;99.90;;;;;;4230034;28;20046;-79
2021/06/27 05:12:46;;;;;;;12.30;10.15;;;21.30;99.90;;;;;;4231000;28;20062;-76
2021/06/27 05:14:49;;;;;;;15.02;9.73;;;21.20;99.90;;;;;;4234620;28;20063;-74
2021/06/27 05:16:54;;;;;;;14.80;10.05;;;21.10;99.90;;;;;;4215821;28;20046;-75
2021/06/27 05:18:57;;;;;;;13.90;9.65;;;21.20;99.90;;;;;;4216709;28;20055;-76
2021/06/27 05:21:00;;;;;;;11.45;9.02;;;21.10;99.90;;;;;;4230360;28;20104;-74
2021/06/27 05:23:03;;;;;;;27.75;9.32;;;21.20;99.90;;;;;;4211750;28;20040;-74
2021/06/27 05:25:08;;;;;;;11.18;9.88;;;21.30;99.90;;;;;;4211958;28;20044;-77
2021/06/27 05:27:11;;;;;;;12.02;10.13;;;21.30;99.90;;;;;;4229528;28;20058;-75
2021/06/27 05:29:16;;;;;;;12.98;9.98;;;21.30;99.90;;;;;;4230322;28;20128;-74
2021/06/27 05:31:19;;;;;;;19.02;9.95;;;21.30;99.90;;;;;;4211638;28;20040;-77
2021/06/27 05:33:22;;;;;;;11.20;9.20;;;21.20;99.90;;;;;;4215274;28;20070;-74
2021/06/27 05:35:25;;;;;;;15.52;10.02;;;21.20;99.90;;;;;;4217390;28;20443;-75
2021/06/27 05:37:28;;;;;;;13.60;9.65;;;21.10;99.90;;;;;;4236734;28;20066;-76
2021/06/27 05:39:31;;;;;;;15.50;9.35;;;21.00;99.90;;;;;;4233791;28;20078;-76
2021/06/27 05:41:36;;;;;;;11.70;9.40;;;20.90;99.90;;;;;;4233510;28;20047;-76
2021/06/27 05:43:39;;;;;;;11.18;9.57;;;20.90;99.90;;;;;;4229615;28;20047;-75
2021/06/27 05:45:43;;;;;;;13.27;9.55;;;21.00;99.90;;;;;;4213156;28;20496;-76
2021/06/27 05:47:46;;;;;;;14.38;9.95;;;21.20;99.90;;;;;;4198174;28;20056;-77
2021/06/27 05:49:50;;;;;;;16.33;9.95;;;21.30;99.90;;;;;;4232894;28;20039;-76
2021/06/27 05:51:53;;;;;;;13.90;9.65;;;21.30;99.90;;;;;;4218143;28;20052;-77
2021/06/27 05:53:56;;;;;;;11.32;9.85;;;21.30;99.90;;;;;;4217780;28;20566;-75
2021/06/27 05:56:09;;;;;;;12.80;9.82;;;21.30;99.90;;;;;;4218378;28;20194;-76
2021/06/27 05:58:13;;;;;;;17.10;10.27;;;21.20;99.90;;;;;;4219937;28;20058;-77
2021/06/27 06:00:17;;;;;;;19.42;11.13;;;21.10;99.90;;;;;;4218522;28;20086;-75
2021/06/27 06:02:21;;;;;;;15.57;10.50;;;21.20;99.90;;;;;;4219334;28;20044;-74
2021/06/27 06:04:24;;;;;;;13.15;9.88;;;21.10;99.90;;;;;;4219495;28;20056;-77
2021/06/27 06:06:27;;;;;;;11.05;9.13;;;21.00;99.90;;;;;;4220227;28;20063;-76
2021/06/27 06:08:31;;;;;;;14.52;9.75;;;21.10;99.90;;;;;;4217760;28;20036;-76
2021/06/27 06:10:34;;;;;;;13.63;9.98;;;21.20;99.90;;;;;;4215259;28;20512;-76
2021/06/27 06:12:38;;;;;;;14.30;10.37;;;21.10;99.90;;;;;;4232336;28;20492;-77
2021/06/27 06:14:41;;;;;;;13.60;9.75;;;21.00;99.90;;;;;;4197814;28;20053;-77
2021/06/27 06:16:45;;;;;;;15.45;9.55;;;21.20;99.90;;;;;;4214070;28;20052;-75
2021/06/27 06:18:50;;;;;;;13.32;10.00;;;21.30;99.90;;;;;;4232579;28;20048;-75
2021/06/27 06:20:53;;;;;;;13.57;9.68;;;21.30;99.90;;;;;;4214474;28;20055;-75
2021/06/27 06:22:56;;;;;;;17.92;9.70;;;21.50;99.90;;;;;;4214752;28;20181;-75
2021/06/27 06:24:59;;;;;;;14.35;10.25;;;21.50;99.90;;;;;;4214226;28;20052;-76
2021/06/27 06:27:03;;;;;;;13.50;9.25;;;21.60;99.90;;;;;;4216572;28;20056;-75
2021/06/27 06:29:07;;;;;;;13.13;10.10;;;21.60;99.90;;;;;;4217994;28;20135;-75
2021/06/27 06:31:10;;;;;;;15.50;9.93;;;21.60;99.90;;;;;;4237465;28;20048;-76
2021/06/27 06:33:13;;;;;;;16.27;9.63;;;21.50;99.90;;;;;;4237212;28;20414;-73
2021/06/27 06:35:18;;;;;;;13.95;10.25;;;21.40;99.90;;;;;;4235960;28;20051;-75
2021/06/27 06:37:21;;;;;;;17.55;10.48;;;21.50;99.90;;;;;;4232546;28;20040;-76
2021/06/27 06:39:24;;;;;;;15.60;10.13;;;21.60;99.90;;;;;;4213952;28;20052;-74
2021/06/27 06:41:27;;;;;;;15.50;10.13;;;21.50;99.90;;;;;;4231495;28;20055;-75
2021/06/27 06:43:31;;;;;;;16.38;10.38;;;21.50;99.90;;;;;;4214011;28;20051;-78
2021/06/27 06:45:35;;;;;;;20.38;10.70;;;21.50;99.90;;;;;;4231898;28;20054;-74
2021/06/27 06:47:38;;;;;;;17.10;9.80;;;21.60;99.90;;;;;;4231482;28;20052;-76
2021/06/27 06:49:41;;;;;;;16.85;10.20;;;21.60;99.90;;;;;;4231584;28;20606;-76
2021/06/27 06:51:46;;;;;;;16.27;10.43;;;21.60;99.90;;;;;;4213922;28;20484;-75
2021/06/27 06:53:49;;;;;;;15.20;10.57;;;21.60;99.90;;;;;;4213716;28;20056;-75
2021/06/27 06:55:58;;;;;;;14.85;10.05;;;21.60;99.90;;;;;;4213898;28;20131;-77
2021/06/27 06:58:01;;;;;;;13.23;10.13;;;21.80;99.90;;;;;;4213752;28;20511;-74
2021/06/27 07:00:06;;;;;;;15.75;10.27;;;21.90;99.90;;;;;;4232152;28;20465;-75
2021/06/27 07:02:09;;;;;;;11.60;9.77;;;21.90;99.90;;;;;;4212940;28;20040;-76
2021/06/27 07:04:12;;;;;;;13.38;9.05;;;22.00;99.90;;;;;;4213729;28;20551;-76
2021/06/27 07:06:15;;;;;;;13.35;10.23;;;22.10;99.90;;;;;;4231676;28;20056;-75
2021/06/27 07:08:20;;;;;;;15.43;9.98;;;22.20;99.90;;;;;;4213501;28;20044;-75
2021/06/27 07:10:23;;;;;;;12.68;10.40;;;22.30;99.90;;;;;;4213621;28;20087;-74
2021/06/27 07:12:26;;;;;;;10.82;9.55;;;22.30;99.90;;;;;;4213329;28;20040;-75
2021/06/27 07:14:30;;;;;;;18.38;10.35;;;22.40;99.90;;;;;;4231745;28;20063;-75
2021/06/27 07:16:33;;;;;;;14.13;10.70;;;22.40;99.90;;;;;;4231463;28;20043;-74
2021/06/27 07:18:36;;;;;;;13.55;9.75;;;22.40;99.90;;;;;;4231319;28;20119;-74
2021/06/27 07:20:39;;;;;;;14.57;9.55;;;22.40;99.90;;;;;;4231092;28;20055;-74
2021/06/27 07:22:43;;;;;;;15.60;9.93;;;22.50;99.90;;;;;;4231763;28;20063;-74
2021/06/27 07:24:47;;;;;;;15.68;11.32;;;22.50;99.90;;;;;;4213022;28;20475;-75
2021/06/27 07:26:50;;;;;;;17.33;10.15;;;22.50;99.90;;;;;;4213187;28;20516;-76
2021/06/27 07:28:53;;;;;;;13.60;9.80;;;22.60;99.90;;;;;;4196667;28;20049;-75
2021/06/27 07:30:58;;;;;;;16.05;10.90;;;22.70;99.90;;;;;;4231156;28;20042;-74
2021/06/27 07:33:01;;;;;;;13.35;10.90;;;22.60;99.90;;;;;;4231110;28;20549;-74
2021/06/27 07:35:05;;;;;;;14.77;9.90;;;22.70;99.90;;;;;;4212750;28;20509;-75
2021/06/27 07:37:18;;;;;;;16.13;10.07;;;22.80;99.90;;;;;;4231260;28;20059;-75
2021/06/27 07:39:22;;;;;;;13.90;10.07;;;22.90;99.90;;;;;;4213178;28;20078;-74
2021/06/27 07:41:26;;;;;;;13.60;10.55;;;22.80;99.90;;;;;;4230704;28;20063;-75
2021/06/27 07:43:31;;;;;;;15.35;10.02;;;22.90;99.90;;;;;;4214650;28;20047;-75
2021/06/27 07:45:34;;;;;;;;;;;22.90;99.90;;;;;;4235963;28;20039;-74
2021/06/27 07:47:38;;;;;;;16.40;10.27;;;23.10;99.90;;;;;;4235956;28;19926;-76
2021/06/27 07:49:41;;;;;;;11.30;9.50;;;23.10;99.90;;;;;;4216252;28;20048;-74
2021/06/27 07:51:44;;;;;;;15.57;10.52;;;23.10;99.90;;;;;;4231296;28;20055;-74
2021/06/27 07:53:47;;;;;;;16.35;10.45;;;23.10;99.90;;;;;;4230663;28;20055;-75
2021/06/27 07:55:50;;;;;;;15.98;9.55;;;23.10;99.90;;;;;;4212754;28;20040;-76
2021/06/27 07:57:55;;;;;;;12.85;10.05;;;23.20;99.90;;;;;;4231407;28;20043;-77
2021/06/27 07:59:58;;;;;;;15.77;9.73;;;23.20;99.90;;;;;;4230936;28;20040;-76
2021/06/27 08:02:01;;;;;;;11.80;9.65;;;23.30;99.90;;;;;;4213055;28;20052;-77
2021/06/27 08:04:05;;;;;;;12.82;9.40;;;23.20;99.90;;;;;;4231495;28;20054;-74
2021/06/27 08:06:08;;;;;;;11.60;9.35;;;23.30;99.90;;;;;;4213618;28;20044;-76
2021/06/27 08:08:12;;;;;;;14.77;9.43;;;23.40;99.90;;;;;;4231902;28;20159;-77
2021/06/27 08:10:15;;;;;;;12.57;9.57;;;23.50;99.90;;;;;;4232494;28;20113;-73
2021/06/27 08:12:18;;;;;;;12.88;10.25;;;23.50;99.90;;;;;;4215622;28;20135;-74
2021/06/27 08:14:23;;;;;;;11.38;9.27;;;23.50;99.90;;;;;;4232151;28;20052;-73
2021/06/27 08:16:26;;;;;;;11.23;9.77;;;23.50;99.90;;;;;;4233667;28;20051;-75
2021/06/27 08:18:29;;;;;;;12.45;10.10;;;23.60;99.90;;;;;;4234096;28;20046;-75
2021/06/27 08:20:32;;;;;;;14.90;9.65;;;23.50;99.90;;;;;;4215697;28;20603;-74
2021/06/27 08:22:36;;;;;;;14.43;9.63;;;23.50;99.90;;;;;;4233272;28;20067;-78
2021/06/27 08:24:40;;;;;;;10.88;9.23;;;23.50;99.90;;;;;;4231606;28;20043;-78
2021/06/27 08:26:43;;;;;;;10.75;9.23;;;23.70;99.90;;;;;;4213961;28;20191;-75
2021/06/27 08:28:46;;;;;;;13.63;9.68;;;23.70;99.90;;;;;;4230891;28;20047;-77
2021/06/27 08:30:51;;;;;;;12.90;10.50;;;23.80;99.90;;;;;;4230195;28;20061;-74
2021/06/27 08:32:55;;;;;;;11.68;9.75;;;23.70;99.90;;;;;;4212649;28;20048;-73
2021/06/27 08:34:58;;;;;;;18.98;11.13;;;23.80;99.90;;;;;;4230445;28;20039;-73
2021/06/27 08:37:01;;;;;;;13.05;9.88;;;23.70;99.90;;;;;;4230399;28;20047;-75
2021/06/27 08:39:05;;;;;;;15.23;10.77;;;23.70;99.90;;;;;;4216214;28;20139;-74
2021/06/27 08:41:08;;;;;;;11.27;10.07;;;23.50;99.90;;;;;;4219655;28;20071;-75
2021/06/27 08:43:12;;;;;;;15.80;10.35;;;23.50;99.90;;;;;;4239206;28;20840;-76
2021/06/27 08:45:16;;;;;;;18.20;11.07;;;23.60;99.90;;;;;;4220901;28;20048;-75
2021/06/27 08:47:21;;;;;;;20.52;10.82;;;23.70;99.90;;;;;;4222952;28;20058;-75
2021/06/27 08:49:25;;;;;;;16.20;9.77;;;23.70;99.90;;;;;;4241751;28;20051;-75
2021/06/27 08:51:34;;;;;;;13.77;10.23;;;23.80;99.90;;;;;;4242955;28;20054;-74
2021/06/27 08:53:39;;;;;;;13.43;10.45;;;23.80;99.90;;;;;;4219294;28;20044;-76
2021/06/27 08:55:43;;;;;;;11.45;9.20;;;23.60;99.90;;;;;;4236904;28;20051;-74
2021/06/27 08:57:46;;;;;;;12.65;9.70;;;23.70;99.90;;;;;;4237409;28;20051;-77
2021/06/27 08:59:49;;;;;;;14.13;9.43;;;23.60;99.90;;;;;;4222679;28;20223;-76
2021/06/27 09:01:58;;;;;;;12.25;9.02;;;23.80;99.90;;;;;;4224165;28;20096;-77
2021/06/27 09:04:03;;;;;;;14.75;9.60;;;23.80;99.90;;;;;;4238005;28;20046;-75
2021/06/27 09:06:08;;;;;;;13.57;9.68;;;23.70;99.90;;;;;;4214903;28;20431;-74
2021/06/27 09:08:16;;;;;;;13.57;9.43;;;23.90;99.90;;;;;;4213091;28;20067;-74
2021/06/27 09:10:26;;;;;;;13.60;10.57;;;24.00;99.90;;;;;;4231391;28;20039;-75
2021/06/27 09:12:45;;;;;;;14.15;10.80;;;23.90;99.90;;;;;;4212831;28;20110;-76
2021/06/27 09:14:52;;;;;;;15.20;11.82;;;23.90;99.90;;;;;;4230419;28;20122;-76
2021/06/27 09:17:13;;;;;;;14.18;10.80;;;23.80;99.90;;;;;;4230817;28;20085;-77
2021/06/27 09:19:18;;;;;;;17.90;12.43;;;23.80;99.90;;;;;;4196850;28;20109;-74
2021/06/27 09:21:22;;;;;;;14.45;12.05;;;23.90;99.90;;;;;;4212787;28;20044;-77
2021/06/27 09:23:35;;;;;;;16.20;12.02;;;23.80;99.90;;;;;;4230617;28;20452;-75
2021/06/27 09:25:38;;;;;;;14.05;12.25;;;23.90;99.90;;;;;;4229876;28;20051;-73
2021/06/27 09:27:42;;;;;;;13.13;11.73;;;23.90;99.90;;;;;;4232326;28;20188;-74
2021/06/27 09:29:46;;;;;;;14.85;12.55;;;23.90;99.90;;;;;;4214083;28;20127;-75
2021/06/27 09:31:49;;;;;;;19.43;13.13;;;23.90;99.90;;;;;;4213376;28;20056;-75
2021/06/27 09:33:59;;;;;;;19.08;12.98;;;23.70;99.90;;;;;;4212994;28;20040;-76
2021/06/27 09:36:05;;;;;;;19.42;13.50;;;23.70;99.90;;;;;;4212465;28;20044;-76
2021/06/27 09:38:38;;;;;;;14.43;12.25;;;23.60;99.90;;;;;;4230535;28;20056;-78
2021/06/27 09:40:41;;;;;;;17.42;13.63;;;23.50;99.90;;;;;;4205217;28;20056;-77
2021/06/27 09:42:44;;;;;;;15.25;12.80;;;23.60;99.90;;;;;;4216856;28;20051;-75
2021/06/27 09:45:00;;;;;;;18.52;12.30;;;23.70;99.90;;;;;;4197813;28;20049;-75
2021/06/27 09:47:05;;;;;;;19.13;12.43;;;23.80;99.90;;;;;;4233099;28;20051;-77
2021/06/27 09:49:10;;;;;;;14.40;12.63;;;23.80;99.90;;;;;;4232074;28;20397;-75
2021/06/27 09:51:16;;;;;;;14.65;12.75;;;23.60;99.90;;;;;;4233694;28;20082;-75
2021/06/27 09:53:33;;;;;;;17.90;13.20;;;23.50;99.90;;;;;;4196635;28;20063;-75
2021/06/27 09:55:36;;;;;;;17.10;13.02;;;23.50;99.90;;;;;;4211775;28;20115;-75
2021/06/27 09:57:41;;;;;;;14.50;13.00;;;23.60;99.90;;;;;;4229515;28;20051;-75
2021/06/27 09:59:44;;;;;;;15.73;13.13;;;23.50;99.90;;;;;;4229627;28;20103;-75
2021/06/27 10:01:48;;;;;;;15.65;12.88;;;23.50;99.90;;;;;;4211690;28;20044;-75
2021/06/27 10:03:56;;;;;;;13.88;12.57;;;23.60;99.90;;;;;;4211543;28;20062;-75
2021/06/27 10:06:05;;;;;;;17.45;12.32;;;23.70;99.90;;;;;;4229394;28;20088;-74
2021/06/27 10:08:26;;;;;;;19.38;14.48;;;23.70;99.90;;;;;;4196100;28;20143;-75
2021/06/27 10:10:29;;;;;;;16.48;13.45;;;23.70;99.90;;;;;;4195935;28;20055;-76
2021/06/27 10:12:36;;;;;;;20.05;14.07;;;23.70;99.90;;;;;;4234933;28;20043;-78
2021/06/27 10:14:58;;;;;;;18.48;14.65;;;23.70;99.90;;;;;;4216995;28;20044;-75
2021/06/27 10:17:03;;;;;;;16.63;13.80;;;23.80;99.90;;;;;;4234815;28;20052;-75
2021/06/27 10:19:06;;;;;;;20.48;14.73;;;23.70;99.90;;;;;;4230180;28;20043;-75
2021/06/27 10:21:10;;;;;;;18.80;13.95;;;23.50;99.90;;;;;;4211216;28;20109;-75
2021/06/27 10:23:15;;;;;;;18.80;14.50;;;23.50;99.90;;;;;;4211417;28;20058;-75
2021/06/27 10:25:19;;;;;;;15.02;13.43;;;23.40;99.90;;;;;;4194713;28;20068;-75
2021/06/27 10:27:23;;;;;;;18.08;14.70;;;23.40;99.90;;;;;;4211276;28;20044;-78
2021/06/27 10:29:27;;;;;;;18.48;15.02;;;23.50;99.90;;;;;;4211230;28;20052;-76
2021/06/27 10:31:30;;;;;;;17.08;13.00;;;23.40;99.90;;;;;;4228873;28;20058;-75
2021/06/27 10:33:33;;;;;;;17.58;14.23;;;23.60;99.90;;;;;;4211206;28;20117;-75
2021/06/27 10:35:37;;;;;;;18.73;14.02;;;23.70;99.90;;;;;;4229065;28;20529;-75
2021/06/27 10:37:43;;;;;;;17.33;14.10;;;23.70;99.90;;;;;;4232815;28;20100;-77